Alpena County Regional Airport Alpena US
ICAO: KAPN
IATA: APN
Category: Medium
Scheduled Services: Yes

Elevation: 690 ft
TransAlt. 18000 ft.

Airport Communications:
APP/DEP:128.425
ASOS:120.675
CTAF:121.35
GND:121.9
PTD:37.22
LANSING RDO:108.8
TWR:121.35
UNICOM:122.95

KAPN Zoom In..

If Map Doesn't Load, Click Here

Runways:

(A) RW 01 length 9001 ft width 150 ft
ILS 109.70 / hdg 7

(B) RW 07 length 5028 ft width 100 ft
---- / hdg 67

(C) RW 19 length 9001 ft width 150 ft
---- / hdg 187

(D) RW 25 length 5028 ft width 100 ft
---- / hdg 247

Location; KAPN
Day. 21 / Time. 12.54 Zulu
* Altimeter: 29.55
* Temperature: 24° c. 75.2°f.
* Wind from: 200° Speed 14 kn with Gusts up to 25 kn.
Dewpoint: 20° c.
Visibility: 10 Statute Miles.
Clouds: Clear (automated report).

KAPN 211254Z AUTO 20014G25KT 10SM CLR 24/20 A2955 RMK AO2 SLP004 T02390200


Wind From 200°
Speed 14 kn.

 
 
jpsmedia.com for Web Design worldairports.se 2018   terms of use